sensor_id;sensor_type;location;lat;lon;timestamp;P1;durP1;ratioP1;P2;durP2;ratioP2
2305;SDS011;1161;51.922;8.896;2022-10-16T00:00:41;4.80;;;3.97;;
2305;SDS011;1161;51.922;8.896;2022-10-16T00:03:10;5.03;;;4.03;;
2305;SDS011;1161;51.922;8.896;2022-10-16T00:05:38;5.37;;;4.07;;
2305;SDS011;1161;51.922;8.896;2022-10-16T00:08:06;13.80;;;4.60;;
2305;SDS011;1161;51.922;8.896;2022-10-16T00:10:33;6.80;;;3.23;;
2305;SDS011;1161;51.922;8.896;2022-10-16T00:12:59;8.20;;;3.93;;
2305;SDS011;1161;51.922;8.896;2022-10-16T00:15:26;7.67;;;3.60;;
2305;SDS011;1161;51.922;8.896;2022-10-16T00:17:53;8.00;;;3.87;;
2305;SDS011;1161;51.922;8.896;2022-10-16T00:20:21;10.60;;;3.93;;
2305;SDS011;1161;51.922;8.896;2022-10-16T00:22:48;16.37;;;4.20;;
2305;SDS011;1161;51.922;8.896;2022-10-16T00:25:14;10.83;;;4.23;;
2305;SDS011;1161;51.922;8.896;2022-10-16T00:27:42;6.93;;;4.40;;
2305;SDS011;1161;51.922;8.896;2022-10-16T00:30:09;5.20;;;3.97;;
2305;SDS011;1161;51.922;8.896;2022-10-16T00:32:36;12.97;;;3.47;;
2305;SDS011;1161;51.922;8.896;2022-10-16T00:35:04;6.83;;;3.43;;
2305;SDS011;1161;51.922;8.896;2022-10-16T00:37:33;4.70;;;3.53;;
2305;SDS011;1161;51.922;8.896;2022-10-16T00:39:59;4.60;;;3.90;;
2305;SDS011;1161;51.922;8.896;2022-10-16T00:42:26;4.73;;;3.67;;
2305;SDS011;1161;51.922;8.896;2022-10-16T00:44:54;3.27;;;2.97;;
2305;SDS011;1161;51.922;8.896;2022-10-16T00:47:23;6.03;;;4.33;;
2305;SDS011;1161;51.922;8.896;2022-10-16T00:49:51;4.90;;;3.40;;
2305;SDS011;1161;51.922;8.896;2022-10-16T00:52:20;12.77;;;4.50;;
2305;SDS011;1161;51.922;8.896;2022-10-16T00:54:48;3.50;;;3.20;;
2305;SDS011;1161;51.922;8.896;2022-10-16T00:57:15;7.40;;;3.63;;
2305;SDS011;1161;51.922;8.896;2022-10-16T00:59:42;7.37;;;3.47;;
2305;SDS011;1161;51.922;8.896;2022-10-16T01:02:10;3.20;;;2.90;;
2305;SDS011;1161;51.922;8.896;2022-10-16T01:04:38;7.10;;;4.13;;
2305;SDS011;1161;51.922;8.896;2022-10-16T01:07:07;5.77;;;3.57;;
2305;SDS011;1161;51.922;8.896;2022-10-16T01:09:41;5.30;;;4.53;;
2305;SDS011;1161;51.922;8.896;2022-10-16T01:12:17;6.93;;;2.90;;
2305;SDS011;1161;51.922;8.896;2022-10-16T01:14:51;10.87;;;4.37;;
2305;SDS011;1161;51.922;8.896;2022-10-16T01:17:21;5.73;;;3.37;;
2305;SDS011;1161;51.922;8.896;2022-10-16T01:20:01;5.20;;;3.50;;
2305;SDS011;1161;51.922;8.896;2022-10-16T01:22:33;4.67;;;3.27;;
2305;SDS011;1161;51.922;8.896;2022-10-16T01:25:08;9.40;;;3.57;;
2305;SDS011;1161;51.922;8.896;2022-10-16T01:27:37;4.10;;;2.80;;
2305;SDS011;1161;51.922;8.896;2022-10-16T01:30:07;6.63;;;3.90;;
2305;SDS011;1161;51.922;8.896;2022-10-16T01:32:37;3.53;;;3.23;;
2305;SDS011;1161;51.922;8.896;2022-10-16T01:35:08;4.87;;;2.93;;
2305;SDS011;1161;51.922;8.896;2022-10-16T01:37:37;8.20;;;4.00;;
2305;SDS011;1161;51.922;8.896;2022-10-16T01:40:08;7.80;;;3.87;;
2305;SDS011;1161;51.922;8.896;2022-10-16T01:42:39;6.80;;;3.80;;
2305;SDS011;1161;51.922;8.896;2022-10-16T01:45:08;5.70;;;3.80;;
2305;SDS011;1161;51.922;8.896;2022-10-16T01:47:38;7.47;;;4.33;;
2305;SDS011;1161;51.922;8.896;2022-10-16T01:50:06;4.03;;;3.33;;
2305;SDS011;1161;51.922;8.896;2022-10-16T01:52:34;7.13;;;3.67;;
2305;SDS011;1161;51.922;8.896;2022-10-16T01:55:07;8.43;;;3.60;;
2305;SDS011;1161;51.922;8.896;2022-10-16T01:57:35;4.33;;;3.23;;
2305;SDS011;1161;51.922;8.896;2022-10-16T02:00:05;4.60;;;3.97;;
2305;SDS011;1161;51.922;8.896;2022-10-16T02:02:35;7.00;;;4.23;;
2305;SDS011;1161;51.922;8.896;2022-10-16T02:05:05;6.27;;;4.63;;
2305;SDS011;1161;51.922;8.896;2022-10-16T02:07:35;11.43;;;4.03;;
2305;SDS011;1161;51.922;8.896;2022-10-16T02:10:02;3.53;;;3.23;;
2305;SDS011;1161;51.922;8.896;2022-10-16T02:12:29;4.10;;;3.70;;
2305;SDS011;1161;51.922;8.896;2022-10-16T02:14:58;6.03;;;3.43;;
2305;SDS011;1161;51.922;8.896;2022-10-16T02:17:26;3.13;;;2.93;;
2305;SDS011;1161;51.922;8.896;2022-10-16T02:19:53;4.20;;;3.63;;
2305;SDS011;1161;51.922;8.896;2022-10-16T02:22:22;10.70;;;3.90;;
2305;SDS011;1161;51.922;8.896;2022-10-16T02:24:51;9.53;;;4.13;;
2305;SDS011;1161;51.922;8.896;2022-10-16T02:27:22;7.30;;;4.37;;
2305;SDS011;1161;51.922;8.896;2022-10-16T02:29:53;3.93;;;3.50;;
2305;SDS011;1161;51.922;8.896;2022-10-16T02:32:24;5.53;;;4.53;;
2305;SDS011;1161;51.922;8.896;2022-10-16T02:34:56;8.90;;;4.40;;
2305;SDS011;1161;51.922;8.896;2022-10-16T02:37:25;4.60;;;4.20;;
2305;SDS011;1161;51.922;8.896;2022-10-16T02:39:52;8.20;;;4.30;;
2305;SDS011;1161;51.922;8.896;2022-10-16T02:42:20;6.73;;;4.20;;
2305;SDS011;1161;51.922;8.896;2022-10-16T02:44:47;6.13;;;4.57;;
2305;SDS011;1161;51.922;8.896;2022-10-16T02:47:15;6.13;;;4.50;;
2305;SDS011;1161;51.922;8.896;2022-10-16T02:49:43;7.03;;;4.73;;
2305;SDS011;1161;51.922;8.896;2022-10-16T02:52:10;9.93;;;4.30;;
2305;SDS011;1161;51.922;8.896;2022-10-16T02:54:37;7.43;;;4.60;;
2305;SDS011;1161;51.922;8.896;2022-10-16T02:57:04;13.60;;;5.47;;
2305;SDS011;1161;51.922;8.896;2022-10-16T02:59:31;6.20;;;5.07;;
2305;SDS011;1161;51.922;8.896;2022-10-16T03:01:58;4.30;;;4.00;;
2305;SDS011;1161;51.922;8.896;2022-10-16T03:04:24;6.73;;;4.40;;
2305;SDS011;1161;51.922;8.896;2022-10-16T03:06:56;7.70;;;4.43;;
2305;SDS011;1161;51.922;8.896;2022-10-16T03:09:23;6.20;;;3.73;;
2305;SDS011;1161;51.922;8.896;2022-10-16T03:11:56;4.90;;;4.03;;
2305;SDS011;1161;51.922;8.896;2022-10-16T03:14:23;4.70;;;3.73;;
2305;SDS011;1161;51.922;8.896;2022-10-16T03:16:49;13.47;;;5.20;;
2305;SDS011;1161;51.922;8.896;2022-10-16T03:19:17;11.07;;;4.90;;
2305;SDS011;1161;51.922;8.896;2022-10-16T03:21:45;11.03;;;4.07;;
2305;SDS011;1161;51.922;8.896;2022-10-16T03:24:13;3.23;;;2.77;;
2305;SDS011;1161;51.922;8.896;2022-10-16T03:26:41;4.10;;;3.27;;
2305;SDS011;1161;51.922;8.896;2022-10-16T03:29:08;4.90;;;3.17;;
2305;SDS011;1161;51.922;8.896;2022-10-16T03:31:35;3.47;;;3.13;;
2305;SDS011;1161;51.922;8.896;2022-10-16T03:34:02;3.60;;;2.83;;
2305;SDS011;1161;51.922;8.896;2022-10-16T03:36:29;4.40;;;2.80;;
2305;SDS011;1161;51.922;8.896;2022-10-16T03:38:57;4.03;;;1.73;;
2305;SDS011;1161;51.922;8.896;2022-10-16T03:41:26;3.27;;;2.53;;
2305;SDS011;1161;51.922;8.896;2022-10-16T03:43:53;3.27;;;2.10;;
2305;SDS011;1161;51.922;8.896;2022-10-16T03:46:22;2.20;;;2.10;;
2305;SDS011;1161;51.922;8.896;2022-10-16T03:48:49;5.30;;;2.83;;
2305;SDS011;1161;51.922;8.896;2022-10-16T03:51:19;6.03;;;2.57;;
2305;SDS011;1161;51.922;8.896;2022-10-16T03:53:47;5.50;;;2.10;;
2305;SDS011;1161;51.922;8.896;2022-10-16T03:56:17;3.93;;;2.50;;
2305;SDS011;1161;51.922;8.896;2022-10-16T03:58:45;6.70;;;2.33;;
2305;SDS011;1161;51.922;8.896;2022-10-16T04:01:16;6.30;;;2.60;;
2305;SDS011;1161;51.922;8.896;2022-10-16T04:03:46;3.50;;;2.70;;
2305;SDS011;1161;51.922;8.896;2022-10-16T04:06:13;4.40;;;2.50;;
2305;SDS011;1161;51.922;8.896;2022-10-16T04:08:41;2.57;;;2.37;;
2305;SDS011;1161;51.922;8.896;2022-10-16T04:11:09;2.33;;;2.17;;
2305;SDS011;1161;51.922;8.896;2022-10-16T04:13:37;11.30;;;2.30;;
2305;SDS011;1161;51.922;8.896;2022-10-16T04:16:06;3.37;;;2.23;;
2305;SDS011;1161;51.922;8.896;2022-10-16T04:18:33;2.60;;;2.40;;
2305;SDS011;1161;51.922;8.896;2022-10-16T04:21:02;6.33;;;1.80;;
2305;SDS011;1161;51.922;8.896;2022-10-16T04:23:32;4.53;;;2.70;;
2305;SDS011;1161;51.922;8.896;2022-10-16T04:25:59;4.30;;;2.30;;
2305;SDS011;1161;51.922;8.896;2022-10-16T04:28:27;2.80;;;2.60;;
2305;SDS011;1161;51.922;8.896;2022-10-16T04:30:56;12.83;;;2.20;;
2305;SDS011;1161;51.922;8.896;2022-10-16T04:33:26;3.03;;;2.40;;
2305;SDS011;1161;51.922;8.896;2022-10-16T04:35:57;1.97;;;1.77;;
2305;SDS011;1161;51.922;8.896;2022-10-16T04:38:24;4.53;;;2.17;;
2305;SDS011;1161;51.922;8.896;2022-10-16T04:40:52;2.93;;;2.20;;
2305;SDS011;1161;51.922;8.896;2022-10-16T04:43:22;2.60;;;2.40;;
2305;SDS011;1161;51.922;8.896;2022-10-16T04:45:55;4.07;;;2.00;;
2305;SDS011;1161;51.922;8.896;2022-10-16T04:48:24;4.47;;;2.90;;
2305;SDS011;1161;51.922;8.896;2022-10-16T04:51:07;3.80;;;2.20;;
2305;SDS011;1161;51.922;8.896;2022-10-16T04:53:34;7.53;;;2.47;;
2305;SDS011;1161;51.922;8.896;2022-10-16T04:56:02;5.60;;;2.70;;
2305;SDS011;1161;51.922;8.896;2022-10-16T04:58:30;2.10;;;2.00;;
2305;SDS011;1161;51.922;8.896;2022-10-16T05:00:57;10.23;;;2.50;;
2305;SDS011;1161;51.922;8.896;2022-10-16T05:03:28;5.57;;;2.33;;
2305;SDS011;1161;51.922;8.896;2022-10-16T05:05:59;3.67;;;3.33;;
2305;SDS011;1161;51.922;8.896;2022-10-16T05:08:29;31.17;;;3.00;;
2305;SDS011;1161;51.922;8.896;2022-10-16T05:11:01;2.33;;;2.23;;
2305;SDS011;1161;51.922;8.896;2022-10-16T05:13:28;4.87;;;1.73;;
2305;SDS011;1161;51.922;8.896;2022-10-16T05:15:57;21.17;;;3.10;;
2305;SDS011;1161;51.922;8.896;2022-10-16T05:18:26;2.83;;;1.90;;
2305;SDS011;1161;51.922;8.896;2022-10-16T05:20:55;1.80;;;1.70;;
2305;SDS011;1161;51.922;8.896;2022-10-16T05:23:23;4.13;;;1.80;;
2305;SDS011;1161;51.922;8.896;2022-10-16T05:25:53;3.90;;;2.50;;
2305;SDS011;1161;51.922;8.896;2022-10-16T05:28:26;2.70;;;2.50;;
2305;SDS011;1161;51.922;8.896;2022-10-16T05:30:55;2.83;;;2.13;;
2305;SDS011;1161;51.922;8.896;2022-10-16T05:33:25;2.50;;;2.00;;
2305;SDS011;1161;51.922;8.896;2022-10-16T05:35:53;2.10;;;2.00;;
2305;SDS011;1161;51.922;8.896;2022-10-16T05:38:25;2.53;;;1.90;;
2305;SDS011;1161;51.922;8.896;2022-10-16T05:40:52;3.57;;;2.00;;
2305;SDS011;1161;51.922;8.896;2022-10-16T05:43:22;1.67;;;1.67;;
2305;SDS011;1161;51.922;8.896;2022-10-16T05:45:55;3.03;;;1.93;;
2305;SDS011;1161;51.922;8.896;2022-10-16T05:48:22;2.83;;;2.47;;
2305;SDS011;1161;51.922;8.896;2022-10-16T05:50:56;1.67;;;1.67;;
2305;SDS011;1161;51.922;8.896;2022-10-16T05:53:26;2.40;;;2.30;;
2305;SDS011;1161;51.922;8.896;2022-10-16T05:55:54;6.40;;;1.80;;
2305;SDS011;1161;51.922;8.896;2022-10-16T05:58:23;3.00;;;2.27;;
2305;SDS011;1161;51.922;8.896;2022-10-16T06:00:53;1.73;;;1.70;;
2305;SDS011;1161;51.922;8.896;2022-10-16T06:03:24;3.07;;;1.90;;
2305;SDS011;1161;51.922;8.896;2022-10-16T06:05:54;1.87;;;1.70;;
2305;SDS011;1161;51.922;8.896;2022-10-16T06:08:22;2.30;;;1.63;;
2305;SDS011;1161;51.922;8.896;2022-10-16T06:10:57;4.67;;;2.37;;
2305;SDS011;1161;51.922;8.896;2022-10-16T06:13:26;4.20;;;1.80;;
2305;SDS011;1161;51.922;8.896;2022-10-16T06:15:56;7.10;;;2.10;;
2305;SDS011;1161;51.922;8.896;2022-10-16T06:18:24;2.57;;;1.30;;
2305;SDS011;1161;51.922;8.896;2022-10-16T06:20:52;5.20;;;1.93;;
2305;SDS011;1161;51.922;8.896;2022-10-16T06:23:20;12.00;;;1.53;;
2305;SDS011;1161;51.922;8.896;2022-10-16T06:25:47;2.00;;;1.80;;
2305;SDS011;1161;51.922;8.896;2022-10-16T06:28:17;3.90;;;1.87;;
2305;SDS011;1161;51.922;8.896;2022-10-16T06:30:45;11.13;;;2.00;;
2305;SDS011;1161;51.922;8.896;2022-10-16T06:33:16;3.90;;;1.40;;
2305;SDS011;1161;51.922;8.896;2022-10-16T06:35:43;10.90;;;1.70;;
2305;SDS011;1161;51.922;8.896;2022-10-16T06:38:11;1.57;;;1.57;;
2305;SDS011;1161;51.922;8.896;2022-10-16T06:40:39;1.40;;;1.40;;
2305;SDS011;1161;51.922;8.896;2022-10-16T06:43:08;2.00;;;1.90;;
2305;SDS011;1161;51.922;8.896;2022-10-16T06:45:38;1.50;;;1.37;;
2305;SDS011;1161;51.922;8.896;2022-10-16T06:48:04;4.60;;;2.00;;
2305;SDS011;1161;51.922;8.896;2022-10-16T06:50:31;1.60;;;1.50;;
2305;SDS011;1161;51.922;8.896;2022-10-16T06:52:58;1.60;;;1.60;;
2305;SDS011;1161;51.922;8.896;2022-10-16T06:55:25;3.50;;;1.60;;
2305;SDS011;1161;51.922;8.896;2022-10-16T06:57:52;1.47;;;1.37;;
2305;SDS011;1161;51.922;8.896;2022-10-16T07:00:18;3.87;;;1.63;;
2305;SDS011;1161;51.922;8.896;2022-10-16T07:02:46;2.10;;;1.80;;
2305;SDS011;1161;51.922;8.896;2022-10-16T07:05:13;1.57;;;1.20;;
2305;SDS011;1161;51.922;8.896;2022-10-16T07:07:40;1.43;;;1.33;;
2305;SDS011;1161;51.922;8.896;2022-10-16T07:10:07;1.23;;;1.23;;
2305;SDS011;1161;51.922;8.896;2022-10-16T07:12:34;6.80;;;3.10;;
2305;SDS011;1161;51.922;8.896;2022-10-16T07:15:01;1.50;;;1.40;;
2305;SDS011;1161;51.922;8.896;2022-10-16T07:17:27;2.37;;;2.10;;
2305;SDS011;1161;51.922;8.896;2022-10-16T07:19:55;3.40;;;1.20;;
2305;SDS011;1161;51.922;8.896;2022-10-16T07:22:22;1.40;;;1.40;;
2305;SDS011;1161;51.922;8.896;2022-10-16T07:24:48;1.40;;;1.30;;
2305;SDS011;1161;51.922;8.896;2022-10-16T07:27:16;3.37;;;1.77;;
2305;SDS011;1161;51.922;8.896;2022-10-16T07:29:43;2.00;;;1.30;;
2305;SDS011;1161;51.922;8.896;2022-10-16T07:32:10;1.30;;;1.30;;
2305;SDS011;1161;51.922;8.896;2022-10-16T07:34:37;7.23;;;1.67;;
2305;SDS011;1161;51.922;8.896;2022-10-16T07:37:05;5.43;;;2.57;;
2305;SDS011;1161;51.922;8.896;2022-10-16T07:39:31;2.23;;;1.73;;
2305;SDS011;1161;51.922;8.896;2022-10-16T07:41:58;1.30;;;1.20;;
2305;SDS011;1161;51.922;8.896;2022-10-16T07:44:25;1.70;;;1.30;;
2305;SDS011;1161;51.922;8.896;2022-10-16T07:46:52;2.23;;;2.07;;
2305;SDS011;1161;51.922;8.896;2022-10-16T07:49:19;4.83;;;1.93;;
2305;SDS011;1161;51.922;8.896;2022-10-16T07:51:46;4.57;;;1.77;;
2305;SDS011;1161;51.922;8.896;2022-10-16T07:54:14;2.73;;;1.63;;
2305;SDS011;1161;51.922;8.896;2022-10-16T07:56:40;1.90;;;1.80;;
2305;SDS011;1161;51.922;8.896;2022-10-16T07:59:07;7.90;;;2.73;;
2305;SDS011;1161;51.922;8.896;2022-10-16T08:01:34;2.53;;;2.33;;
2305;SDS011;1161;51.922;8.896;2022-10-16T08:04:00;2.30;;;2.10;;
2305;SDS011;1161;51.922;8.896;2022-10-16T08:06:27;2.13;;;1.93;;
2305;SDS011;1161;51.922;8.896;2022-10-16T08:08:54;3.23;;;2.20;;
2305;SDS011;1161;51.922;8.896;2022-10-16T08:11:22;1.93;;;1.83;;
2305;SDS011;1161;51.922;8.896;2022-10-16T08:13:49;1.77;;;1.67;;
2305;SDS011;1161;51.922;8.896;2022-10-16T08:16:16;3.53;;;1.90;;
2305;SDS011;1161;51.922;8.896;2022-10-16T08:18:43;4.03;;;1.57;;
2305;SDS011;1161;51.922;8.896;2022-10-16T08:21:12;7.40;;;1.77;;
2305;SDS011;1161;51.922;8.896;2022-10-16T08:23:39;7.33;;;1.77;;
2305;SDS011;1161;51.922;8.896;2022-10-16T08:26:06;1.73;;;1.67;;
2305;SDS011;1161;51.922;8.896;2022-10-16T08:28:35;4.90;;;1.77;;
2305;SDS011;1161;51.922;8.896;2022-10-16T08:31:06;1.93;;;1.83;;
2305;SDS011;1161;51.922;8.896;2022-10-16T08:33:34;3.27;;;1.60;;
2305;SDS011;1161;51.922;8.896;2022-10-16T08:36:02;6.40;;;2.37;;
2305;SDS011;1161;51.922;8.896;2022-10-16T08:38:29;1.50;;;1.50;;
2305;SDS011;1161;51.922;8.896;2022-10-16T08:40:57;5.10;;;3.37;;
2305;SDS011;1161;51.922;8.896;2022-10-16T08:43:39;4.97;;;1.43;;
2305;SDS011;1161;51.922;8.896;2022-10-16T08:46:21;2.10;;;2.00;;
2305;SDS011;1161;51.922;8.896;2022-10-16T08:48:54;1.67;;;1.57;;
2305;SDS011;1161;51.922;8.896;2022-10-16T08:51:24;5.80;;;1.60;;
2305;SDS011;1161;51.922;8.896;2022-10-16T08:53:52;3.03;;;2.17;;
2305;SDS011;1161;51.922;8.896;2022-10-16T08:56:21;2.13;;;1.53;;
2305;SDS011;1161;51.922;8.896;2022-10-16T08:58:49;2.30;;;1.30;;
2305;SDS011;1161;51.922;8.896;2022-10-16T09:01:17;1.50;;;1.50;;
2305;SDS011;1161;51.922;8.896;2022-10-16T09:03:52;2.10;;;1.97;;
2305;SDS011;1161;51.922;8.896;2022-10-16T09:06:30;6.80;;;1.97;;
2305;SDS011;1161;51.922;8.896;2022-10-16T09:09:14;3.80;;;2.03;;
2305;SDS011;1161;51.922;8.896;2022-10-16T09:11:47;3.40;;;2.07;;
2305;SDS011;1161;51.922;8.896;2022-10-16T09:14:29;1.60;;;1.60;;
2305;SDS011;1161;51.922;8.896;2022-10-16T09:17:04;7.33;;;1.87;;
2305;SDS011;1161;51.922;8.896;2022-10-16T09:19:38;1.57;;;1.40;;
2305;SDS011;1161;51.922;8.896;2022-10-16T09:22:10;2.30;;;1.40;;
2305;SDS011;1161;51.922;8.896;2022-10-16T09:24:40;2.40;;;1.90;;
2305;SDS011;1161;51.922;8.896;2022-10-16T09:27:08;5.83;;;1.90;;
2305;SDS011;1161;51.922;8.896;2022-10-16T09:29:41;2.97;;;1.47;;
2305;SDS011;1161;51.922;8.896;2022-10-16T09:32:10;4.03;;;1.77;;
2305;SDS011;1161;51.922;8.896;2022-10-16T09:34:40;4.00;;;2.27;;
2305;SDS011;1161;51.922;8.896;2022-10-16T09:37:09;1.50;;;1.40;;
2305;SDS011;1161;51.922;8.896;2022-10-16T09:39:45;1.83;;;1.73;;
2305;SDS011;1161;51.922;8.896;2022-10-16T09:42:13;8.20;;;1.77;;
2305;SDS011;1161;51.922;8.896;2022-10-16T09:44:46;1.50;;;1.40;;
2305;SDS011;1161;51.922;8.896;2022-10-16T09:47:15;1.30;;;1.10;;
2305;SDS011;1161;51.922;8.896;2022-10-16T09:49:50;1.70;;;1.60;;
2305;SDS011;1161;51.922;8.896;2022-10-16T09:52:18;1.70;;;1.47;;
2305;SDS011;1161;51.922;8.896;2022-10-16T09:54:49;1.47;;;1.33;;
2305;SDS011;1161;51.922;8.896;2022-10-16T09:57:16;0.93;;;0.93;;
2305;SDS011;1161;51.922;8.896;2022-10-16T09:59:48;4.03;;;1.60;;
2305;SDS011;1161;51.922;8.896;2022-10-16T10:02:16;2.60;;;2.40;;
2305;SDS011;1161;51.922;8.896;2022-10-16T10:04:47;4.40;;;2.00;;
2305;SDS011;1161;51.922;8.896;2022-10-16T10:07:17;3.87;;;1.50;;
2305;SDS011;1161;51.922;8.896;2022-10-16T10:09:45;1.87;;;1.77;;
2305;SDS011;1161;51.922;8.896;2022-10-16T10:12:16;1.80;;;1.70;;
2305;SDS011;1161;51.922;8.896;2022-10-16T10:14:45;4.50;;;1.60;;
2305;SDS011;1161;51.922;8.896;2022-10-16T10:17:16;1.17;;;1.10;;
2305;SDS011;1161;51.922;8.896;2022-10-16T10:19:48;3.00;;;1.10;;
2305;SDS011;1161;51.922;8.896;2022-10-16T10:22:24;1.23;;;1.00;;
2305;SDS011;1161;51.922;8.896;2022-10-16T10:25:12;0.87;;;0.87;;
2305;SDS011;1161;51.922;8.896;2022-10-16T10:27:46;1.40;;;1.27;;
2305;SDS011;1161;51.922;8.896;2022-10-16T10:30:20;3.90;;;1.20;;
2305;SDS011;1161;51.922;8.896;2022-10-16T10:32:53;13.90;;;1.60;;
2305;SDS011;1161;51.922;8.896;2022-10-16T10:35:28;1.10;;;1.00;;
2305;SDS011;1161;51.922;8.896;2022-10-16T10:38:07;4.60;;;0.80;;
2305;SDS011;1161;51.922;8.896;2022-10-16T10:40:45;0.77;;;0.77;;
2305;SDS011;1161;51.922;8.896;2022-10-16T10:43:19;11.93;;;1.10;;
2305;SDS011;1161;51.922;8.896;2022-10-16T10:45:57;10.70;;;1.40;;
2305;SDS011;1161;51.922;8.896;2022-10-16T10:51:16;3.33;;;0.97;;
2305;SDS011;1161;51.922;8.896;2022-10-16T10:53:47;1.47;;;0.93;;
2305;SDS011;1161;51.922;8.896;2022-10-16T10:56:25;5.83;;;1.50;;
2305;SDS011;1161;51.922;8.896;2022-10-16T10:59:07;1.43;;;1.07;;
2305;SDS011;1161;51.922;8.896;2022-10-16T11:01:46;7.40;;;1.33;;
2305;SDS011;1161;51.922;8.896;2022-10-16T11:04:25;4.67;;;0.83;;
2305;SDS011;1161;51.922;8.896;2022-10-16T11:07:09;1.57;;;1.47;;
2305;SDS011;1161;51.922;8.896;2022-10-16T11:09:38;1.83;;;1.27;;
2305;SDS011;1161;51.922;8.896;2022-10-16T11:12:09;4.60;;;1.17;;
2305;SDS011;1161;51.922;8.896;2022-10-16T11:14:40;0.80;;;0.80;;
2305;SDS011;1161;51.922;8.896;2022-10-16T11:17:12;1.30;;;1.20;;
2305;SDS011;1161;51.922;8.896;2022-10-16T11:19:42;2.60;;;2.40;;
2305;SDS011;1161;51.922;8.896;2022-10-16T11:22:14;4.70;;;0.93;;
2305;SDS011;1161;51.922;8.896;2022-10-16T11:24:45;1.50;;;1.30;;
2305;SDS011;1161;51.922;8.896;2022-10-16T11:27:15;1.30;;;0.93;;
2305;SDS011;1161;51.922;8.896;2022-10-16T11:29:46;4.20;;;1.10;;
2305;SDS011;1161;51.922;8.896;2022-10-16T11:32:21;0.93;;;0.80;;
2305;SDS011;1161;51.922;8.896;2022-10-16T11:34:50;1.33;;;0.83;;
2305;SDS011;1161;51.922;8.896;2022-10-16T11:37:19;1.23;;;1.23;;
2305;SDS011;1161;51.922;8.896;2022-10-16T11:39:48;2.87;;;0.90;;
2305;SDS011;1161;51.922;8.896;2022-10-16T11:42:18;2.30;;;0.90;;
2305;SDS011;1161;51.922;8.896;2022-10-16T11:44:50;2.20;;;1.37;;
2305;SDS011;1161;51.922;8.896;2022-10-16T11:47:27;2.10;;;1.00;;
2305;SDS011;1161;51.922;8.896;2022-10-16T11:49:59;0.90;;;0.90;;
2305;SDS011;1161;51.922;8.896;2022-10-16T11:52:29;24.30;;;9.37;;
2305;SDS011;1161;51.922;8.896;2022-10-16T11:54:59;53.00;;;16.37;;
2305;SDS011;1161;51.922;8.896;2022-10-16T11:57:30;4.17;;;1.87;;
2305;SDS011;1161;51.922;8.896;2022-10-16T11:59:59;1.33;;;0.90;;
2305;SDS011;1161;51.922;8.896;2022-10-16T12:02:32;1.33;;;1.33;;
2305;SDS011;1161;51.922;8.896;2022-10-16T12:05:09;1.00;;;0.90;;
2305;SDS011;1161;51.922;8.896;2022-10-16T12:07:41;1.17;;;1.07;;
2305;SDS011;1161;51.922;8.896;2022-10-16T12:10:18;0.93;;;0.90;;
2305;SDS011;1161;51.922;8.896;2022-10-16T12:12:47;1.43;;;1.30;;
2305;SDS011;1161;51.922;8.896;2022-10-16T12:15:18;5.40;;;0.97;;
2305;SDS011;1161;51.922;8.896;2022-10-16T12:17:49;1.53;;;1.17;;
2305;SDS011;1161;51.922;8.896;2022-10-16T12:23:03;3.53;;;1.07;;
2305;SDS011;1161;51.922;8.896;2022-10-16T12:25:31;2.03;;;1.80;;
2305;SDS011;1161;51.922;8.896;2022-10-16T12:27:59;1.13;;;0.80;;
2305;SDS011;1161;51.922;8.896;2022-10-16T12:30:28;3.47;;;0.87;;
2305;SDS011;1161;51.922;8.896;2022-10-16T12:32:57;0.80;;;0.80;;
2305;SDS011;1161;51.922;8.896;2022-10-16T12:35:27;1.53;;;0.80;;
2305;SDS011;1161;51.922;8.896;2022-10-16T12:38:03;2.60;;;0.80;;
2305;SDS011;1161;51.922;8.896;2022-10-16T12:40:32;1.90;;;1.00;;
2305;SDS011;1161;51.922;8.896;2022-10-16T12:43:10;4.87;;;1.60;;
2305;SDS011;1161;51.922;8.896;2022-10-16T12:45:38;2.63;;;0.87;;
2305;SDS011;1161;51.922;8.896;2022-10-16T12:48:18;1.63;;;1.10;;
2305;SDS011;1161;51.922;8.896;2022-10-16T12:50:47;8.03;;;1.47;;
2305;SDS011;1161;51.922;8.896;2022-10-16T12:53:17;1.67;;;0.90;;
2305;SDS011;1161;51.922;8.896;2022-10-16T12:55:48;1.10;;;0.90;;
2305;SDS011;1161;51.922;8.896;2022-10-16T12:58:23;3.13;;;1.10;;
2305;SDS011;1161;51.922;8.896;2022-10-16T13:00:55;2.30;;;1.20;;
2305;SDS011;1161;51.922;8.896;2022-10-16T13:03:28;16.63;;;1.57;;
2305;SDS011;1161;51.922;8.896;2022-10-16T13:06:08;1.50;;;0.80;;
2305;SDS011;1161;51.922;8.896;2022-10-16T13:08:45;1.17;;;0.80;;
2305;SDS011;1161;51.922;8.896;2022-10-16T13:11:25;1.10;;;0.60;;
2305;SDS011;1161;51.922;8.896;2022-10-16T13:14:07;3.33;;;0.80;;
2305;SDS011;1161;51.922;8.896;2022-10-16T13:16:56;0.70;;;0.70;;
2305;SDS011;1161;51.922;8.896;2022-10-16T13:19:32;1.47;;;0.83;;
2305;SDS011;1161;51.922;8.896;2022-10-16T13:22:05;0.77;;;0.70;;
2305;SDS011;1161;51.922;8.896;2022-10-16T13:24:41;4.60;;;1.17;;
2305;SDS011;1161;51.922;8.896;2022-10-16T13:27:15;2.73;;;1.00;;
2305;SDS011;1161;51.922;8.896;2022-10-16T13:29:48;0.87;;;0.87;;
2305;SDS011;1161;51.922;8.896;2022-10-16T13:32:20;4.20;;;1.00;;
2305;SDS011;1161;51.922;8.896;2022-10-16T13:34:49;0.67;;;0.67;;
2305;SDS011;1161;51.922;8.896;2022-10-16T13:37:18;0.50;;;0.50;;
2305;SDS011;1161;51.922;8.896;2022-10-16T13:39:45;0.80;;;0.80;;
2305;SDS011;1161;51.922;8.896;2022-10-16T13:42:13;4.93;;;1.10;;
2305;SDS011;1161;51.922;8.896;2022-10-16T13:44:49;3.80;;;1.20;;
2305;SDS011;1161;51.922;8.896;2022-10-16T13:47:18;1.00;;;0.70;;
2305;SDS011;1161;51.922;8.896;2022-10-16T13:49:45;1.47;;;0.70;;
2305;SDS011;1161;51.922;8.896;2022-10-16T13:52:18;0.70;;;0.70;;
2305;SDS011;1161;51.922;8.896;2022-10-16T13:54:46;0.53;;;0.50;;
2305;SDS011;1161;51.922;8.896;2022-10-16T13:57:13;4.33;;;0.87;;
2305;SDS011;1161;51.922;8.896;2022-10-16T13:59:40;1.60;;;0.60;;
2305;SDS011;1161;51.922;8.896;2022-10-16T14:02:10;1.13;;;0.87;;
2305;SDS011;1161;51.922;8.896;2022-10-16T14:04:44;2.20;;;0.60;;
2305;SDS011;1161;51.922;8.896;2022-10-16T14:07:13;4.63;;;0.73;;
2305;SDS011;1161;51.922;8.896;2022-10-16T14:09:42;0.60;;;0.60;;
2305;SDS011;1161;51.922;8.896;2022-10-16T14:12:10;1.10;;;1.10;;
2305;SDS011;1161;51.922;8.896;2022-10-16T14:14:40;0.80;;;0.80;;
2305;SDS011;1161;51.922;8.896;2022-10-16T14:17:13;0.63;;;0.63;;
2305;SDS011;1161;51.922;8.896;2022-10-16T14:19:40;0.90;;;0.77;;
2305;SDS011;1161;51.922;8.896;2022-10-16T14:22:16;1.43;;;0.87;;
2305;SDS011;1161;51.922;8.896;2022-10-16T14:24:50;0.70;;;0.70;;
2305;SDS011;1161;51.922;8.896;2022-10-16T14:27:27;1.83;;;0.80;;
2305;SDS011;1161;51.922;8.896;2022-10-16T14:32:53;4.23;;;1.00;;
2305;SDS011;1161;51.922;8.896;2022-10-16T14:35:22;2.70;;;0.87;;
2305;SDS011;1161;51.922;8.896;2022-10-16T14:37:51;1.67;;;1.33;;
2305;SDS011;1161;51.922;8.896;2022-10-16T14:40:20;1.90;;;0.90;;
2305;SDS011;1161;51.922;8.896;2022-10-16T14:42:47;5.70;;;1.33;;
2305;SDS011;1161;51.922;8.896;2022-10-16T14:45:15;0.70;;;0.70;;
2305;SDS011;1161;51.922;8.896;2022-10-16T14:47:49;0.63;;;0.50;;
2305;SDS011;1161;51.922;8.896;2022-10-16T14:50:17;1.93;;;0.93;;
2305;SDS011;1161;51.922;8.896;2022-10-16T14:52:44;15.50;;;1.40;;
2305;SDS011;1161;51.922;8.896;2022-10-16T14:55:10;1.27;;;1.27;;
2305;SDS011;1161;51.922;8.896;2022-10-16T14:57:38;1.47;;;1.37;;
2305;SDS011;1161;51.922;8.896;2022-10-16T15:00:08;2.17;;;1.50;;
2305;SDS011;1161;51.922;8.896;2022-10-16T15:02:39;0.80;;;0.80;;
2305;SDS011;1161;51.922;8.896;2022-10-16T15:05:10;2.00;;;1.07;;
2305;SDS011;1161;51.922;8.896;2022-10-16T15:07:39;8.93;;;1.23;;
2305;SDS011;1161;51.922;8.896;2022-10-16T15:10:07;4.57;;;0.90;;
2305;SDS011;1161;51.922;8.896;2022-10-16T15:12:34;2.40;;;1.23;;
2305;SDS011;1161;51.922;8.896;2022-10-16T15:15:05;2.67;;;1.00;;
2305;SDS011;1161;51.922;8.896;2022-10-16T15:17:42;1.10;;;1.10;;
2305;SDS011;1161;51.922;8.896;2022-10-16T15:20:08;1.13;;;1.03;;
2305;SDS011;1161;51.922;8.896;2022-10-16T15:22:35;1.50;;;1.40;;
2305;SDS011;1161;51.922;8.896;2022-10-16T15:25:04;8.60;;;1.10;;
2305;SDS011;1161;51.922;8.896;2022-10-16T15:27:36;11.33;;;2.90;;
2305;SDS011;1161;51.922;8.896;2022-10-16T15:30:07;7.33;;;1.10;;
2305;SDS011;1161;51.922;8.896;2022-10-16T15:32:34;3.70;;;1.10;;
2305;SDS011;1161;51.922;8.896;2022-10-16T15:35:00;2.53;;;1.00;;
2305;SDS011;1161;51.922;8.896;2022-10-16T15:37:27;3.03;;;1.00;;
2305;SDS011;1161;51.922;8.896;2022-10-16T15:39:54;0.90;;;0.70;;